sensor_id;sensor_type;location;lat;lon;timestamp;P1;durP1;ratioP1;P2;durP2;ratioP2
69841;SDS011;57138;51.326;-0.068;2023-05-27T00:02:11;28.85;;;5.95;;
69841;SDS011;57138;51.326;-0.068;2023-05-27T00:04:36;43.20;;;8.68;;
69841;SDS011;57138;51.326;-0.068;2023-05-27T00:07:02;35.72;;;6.88;;
69841;SDS011;57138;51.326;-0.068;2023-05-27T00:09:27;40.17;;;6.72;;
69841;SDS011;57138;51.326;-0.068;2023-05-27T00:11:53;43.72;;;6.63;;
69841;SDS011;57138;51.326;-0.068;2023-05-27T00:14:19;31.55;;;7.93;;
69841;SDS011;57138;51.326;-0.068;2023-05-27T00:16:45;35.15;;;7.22;;
69841;SDS011;57138;51.326;-0.068;2023-05-27T00:19:11;39.08;;;7.50;;
69841;SDS011;57138;51.326;-0.068;2023-05-27T00:21:36;39.55;;;7.57;;
69841;SDS011;57138;51.326;-0.068;2023-05-27T00:24:02;35.67;;;6.18;;
69841;SDS011;57138;51.326;-0.068;2023-05-27T00:26:28;37.00;;;6.72;;
69841;SDS011;57138;51.326;-0.068;2023-05-27T00:28:54;35.80;;;7.22;;
69841;SDS011;57138;51.326;-0.068;2023-05-27T00:31:19;33.95;;;9.05;;
69841;SDS011;57138;51.326;-0.068;2023-05-27T00:33:48;39.22;;;8.45;;
69841;SDS011;57138;51.326;-0.068;2023-05-27T00:36:13;32.40;;;6.70;;
69841;SDS011;57138;51.326;-0.068;2023-05-27T00:38:38;45.42;;;7.72;;
69841;SDS011;57138;51.326;-0.068;2023-05-27T00:41:04;46.70;;;8.38;;
69841;SDS011;57138;51.326;-0.068;2023-05-27T00:43:29;32.17;;;7.35;;
69841;SDS011;57138;51.326;-0.068;2023-05-27T00:45:56;29.75;;;7.05;;
69841;SDS011;57138;51.326;-0.068;2023-05-27T00:48:21;36.85;;;7.38;;
69841;SDS011;57138;51.326;-0.068;2023-05-27T00:50:47;31.17;;;7.13;;
69841;SDS011;57138;51.326;-0.068;2023-05-27T00:53:13;33.17;;;8.73;;
69841;SDS011;57138;51.326;-0.068;2023-05-27T00:55:39;38.90;;;8.07;;
69841;SDS011;57138;51.326;-0.068;2023-05-27T00:58:05;30.77;;;6.20;;
69841;SDS011;57138;51.326;-0.068;2023-05-27T01:00:34;49.38;;;9.20;;
69841;SDS011;57138;51.326;-0.068;2023-05-27T01:03:02;32.45;;;6.75;;
69841;SDS011;57138;51.326;-0.068;2023-05-27T01:05:28;43.08;;;8.13;;
69841;SDS011;57138;51.326;-0.068;2023-05-27T01:10:40;35.97;;;7.85;;
69841;SDS011;57138;51.326;-0.068;2023-05-27T01:13:13;36.05;;;7.55;;
69841;SDS011;57138;51.326;-0.068;2023-05-27T01:15:59;37.05;;;8.73;;
69841;SDS011;57138;51.326;-0.068;2023-05-27T01:18:27;32.15;;;7.40;;
69841;SDS011;57138;51.326;-0.068;2023-05-27T01:20:55;40.83;;;7.70;;
69841;SDS011;57138;51.326;-0.068;2023-05-27T01:23:27;32.50;;;7.22;;
69841;SDS011;57138;51.326;-0.068;2023-05-27T01:25:54;35.67;;;8.50;;
69841;SDS011;57138;51.326;-0.068;2023-05-27T01:28:19;38.30;;;7.00;;
69841;SDS011;57138;51.326;-0.068;2023-05-27T01:30:45;39.53;;;7.75;;
69841;SDS011;57138;51.326;-0.068;2023-05-27T01:33:16;33.75;;;7.55;;
69841;SDS011;57138;51.326;-0.068;2023-05-27T01:35:49;35.35;;;7.72;;
69841;SDS011;57138;51.326;-0.068;2023-05-27T01:38:20;38.10;;;9.25;;
69841;SDS011;57138;51.326;-0.068;2023-05-27T01:40:49;39.83;;;8.30;;
69841;SDS011;57138;51.326;-0.068;2023-05-27T01:43:15;29.85;;;6.95;;
69841;SDS011;57138;51.326;-0.068;2023-05-27T01:45:42;35.70;;;7.13;;
69841;SDS011;57138;51.326;-0.068;2023-05-27T01:48:08;32.83;;;8.18;;
69841;SDS011;57138;51.326;-0.068;2023-05-27T01:50:36;43.60;;;7.72;;
69841;SDS011;57138;51.326;-0.068;2023-05-27T01:53:02;40.80;;;7.88;;
69841;SDS011;57138;51.326;-0.068;2023-05-27T01:55:28;35.88;;;8.07;;
69841;SDS011;57138;51.326;-0.068;2023-05-27T01:57:55;30.23;;;7.20;;
69841;SDS011;57138;51.326;-0.068;2023-05-27T02:00:20;33.50;;;6.00;;
69841;SDS011;57138;51.326;-0.068;2023-05-27T02:02:46;31.08;;;7.45;;
69841;SDS011;57138;51.326;-0.068;2023-05-27T02:05:12;28.92;;;6.50;;
69841;SDS011;57138;51.326;-0.068;2023-05-27T02:07:37;26.25;;;7.25;;
69841;SDS011;57138;51.326;-0.068;2023-05-27T02:10:04;30.77;;;7.45;;
69841;SDS011;57138;51.326;-0.068;2023-05-27T02:12:30;30.20;;;6.75;;
69841;SDS011;57138;51.326;-0.068;2023-05-27T02:14:55;32.85;;;6.82;;
69841;SDS011;57138;51.326;-0.068;2023-05-27T02:17:21;27.90;;;7.38;;
69841;SDS011;57138;51.326;-0.068;2023-05-27T02:19:46;24.65;;;6.65;;
69841;SDS011;57138;51.326;-0.068;2023-05-27T02:22:12;26.30;;;7.35;;
69841;SDS011;57138;51.326;-0.068;2023-05-27T02:24:38;26.25;;;6.53;;
69841;SDS011;57138;51.326;-0.068;2023-05-27T02:27:03;25.52;;;6.43;;
69841;SDS011;57138;51.326;-0.068;2023-05-27T02:29:30;24.98;;;6.00;;
69841;SDS011;57138;51.326;-0.068;2023-05-27T02:31:56;36.25;;;7.40;;
69841;SDS011;57138;51.326;-0.068;2023-05-27T02:34:21;26.05;;;6.13;;
69841;SDS011;57138;51.326;-0.068;2023-05-27T02:36:46;23.70;;;7.03;;
69841;SDS011;57138;51.326;-0.068;2023-05-27T02:39:12;31.33;;;6.40;;
69841;SDS011;57138;51.326;-0.068;2023-05-27T02:41:37;41.25;;;8.30;;
69841;SDS011;57138;51.326;-0.068;2023-05-27T02:44:02;41.90;;;8.65;;
69841;SDS011;57138;51.326;-0.068;2023-05-27T02:46:28;54.17;;;10.68;;
69841;SDS011;57138;51.326;-0.068;2023-05-27T02:48:53;53.20;;;10.88;;
69841;SDS011;57138;51.326;-0.068;2023-05-27T02:51:20;51.20;;;10.23;;
69841;SDS011;57138;51.326;-0.068;2023-05-27T02:53:46;37.67;;;10.80;;
69841;SDS011;57138;51.326;-0.068;2023-05-27T02:56:12;51.72;;;11.38;;
69841;SDS011;57138;51.326;-0.068;2023-05-27T02:58:37;47.85;;;10.73;;
69841;SDS011;57138;51.326;-0.068;2023-05-27T03:01:03;61.95;;;14.32;;
69841;SDS011;57138;51.326;-0.068;2023-05-27T03:03:28;49.88;;;10.85;;
69841;SDS011;57138;51.326;-0.068;2023-05-27T03:05:54;53.30;;;10.82;;
69841;SDS011;57138;51.326;-0.068;2023-05-27T03:08:20;54.75;;;11.95;;
69841;SDS011;57138;51.326;-0.068;2023-05-27T03:10:45;60.40;;;10.95;;
69841;SDS011;57138;51.326;-0.068;2023-05-27T03:13:10;58.53;;;13.85;;
69841;SDS011;57138;51.326;-0.068;2023-05-27T03:15:36;59.25;;;11.43;;
69841;SDS011;57138;51.326;-0.068;2023-05-27T03:18:01;63.97;;;11.27;;
69841;SDS011;57138;51.326;-0.068;2023-05-27T03:20:28;56.25;;;11.52;;
69841;SDS011;57138;51.326;-0.068;2023-05-27T03:22:54;56.10;;;12.35;;
69841;SDS011;57138;51.326;-0.068;2023-05-27T03:25:20;58.90;;;11.88;;
69841;SDS011;57138;51.326;-0.068;2023-05-27T03:27:45;63.20;;;12.07;;
69841;SDS011;57138;51.326;-0.068;2023-05-27T03:30:11;53.25;;;13.13;;
69841;SDS011;57138;51.326;-0.068;2023-05-27T03:32:36;57.22;;;12.73;;
69841;SDS011;57138;51.326;-0.068;2023-05-27T03:35:02;49.78;;;12.20;;
69841;SDS011;57138;51.326;-0.068;2023-05-27T03:37:27;47.83;;;11.75;;
69841;SDS011;57138;51.326;-0.068;2023-05-27T03:39:55;72.22;;;14.00;;
69841;SDS011;57138;51.326;-0.068;2023-05-27T03:42:22;55.20;;;11.90;;
69841;SDS011;57138;51.326;-0.068;2023-05-27T03:44:47;52.35;;;12.10;;
69841;SDS011;57138;51.326;-0.068;2023-05-27T03:47:13;72.10;;;13.57;;
69841;SDS011;57138;51.326;-0.068;2023-05-27T03:49:38;55.28;;;12.15;;
69841;SDS011;57138;51.326;-0.068;2023-05-27T03:52:04;60.17;;;12.30;;
69841;SDS011;57138;51.326;-0.068;2023-05-27T03:54:31;58.83;;;13.07;;
69841;SDS011;57138;51.326;-0.068;2023-05-27T03:56:56;55.83;;;11.57;;
69841;SDS011;57138;51.326;-0.068;2023-05-27T03:59:21;50.78;;;13.00;;
69841;SDS011;57138;51.326;-0.068;2023-05-27T04:01:47;55.63;;;12.52;;
69841;SDS011;57138;51.326;-0.068;2023-05-27T04:04:12;72.75;;;13.85;;
69841;SDS011;57138;51.326;-0.068;2023-05-27T04:06:38;55.10;;;13.48;;
69841;SDS011;57138;51.326;-0.068;2023-05-27T04:09:03;55.78;;;11.95;;
69841;SDS011;57138;51.326;-0.068;2023-05-27T04:11:30;43.90;;;14.23;;
69841;SDS011;57138;51.326;-0.068;2023-05-27T04:13:56;53.97;;;14.23;;
69841;SDS011;57138;51.326;-0.068;2023-05-27T04:16:23;42.30;;;12.60;;
69841;SDS011;57138;51.326;-0.068;2023-05-27T04:18:50;47.78;;;13.70;;
69841;SDS011;57138;51.326;-0.068;2023-05-27T04:21:16;56.92;;;15.30;;
69841;SDS011;57138;51.326;-0.068;2023-05-27T04:23:45;51.70;;;12.93;;
69841;SDS011;57138;51.326;-0.068;2023-05-27T04:26:10;59.70;;;14.93;;
69841;SDS011;57138;51.326;-0.068;2023-05-27T04:28:37;49.58;;;11.70;;
69841;SDS011;57138;51.326;-0.068;2023-05-27T04:31:04;48.47;;;14.13;;
69841;SDS011;57138;51.326;-0.068;2023-05-27T04:33:30;56.70;;;13.90;;
69841;SDS011;57138;51.326;-0.068;2023-05-27T04:35:55;43.10;;;12.18;;
69841;SDS011;57138;51.326;-0.068;2023-05-27T04:38:21;74.78;;;14.48;;
69841;SDS011;57138;51.326;-0.068;2023-05-27T04:40:50;50.10;;;14.38;;
69841;SDS011;57138;51.326;-0.068;2023-05-27T04:43:20;46.40;;;11.95;;
69841;SDS011;57138;51.326;-0.068;2023-05-27T04:45:45;57.03;;;12.52;;
69841;SDS011;57138;51.326;-0.068;2023-05-27T04:48:11;53.33;;;13.25;;
69841;SDS011;57138;51.326;-0.068;2023-05-27T04:50:37;63.15;;;12.30;;
69841;SDS011;57138;51.326;-0.068;2023-05-27T04:53:04;42.70;;;13.52;;
69841;SDS011;57138;51.326;-0.068;2023-05-27T04:55:31;45.17;;;14.15;;
69841;SDS011;57138;51.326;-0.068;2023-05-27T04:58:01;48.65;;;11.02;;
69841;SDS011;57138;51.326;-0.068;2023-05-27T05:00:29;62.28;;;13.27;;
69841;SDS011;57138;51.326;-0.068;2023-05-27T05:03:03;57.70;;;13.18;;
69841;SDS011;57138;51.326;-0.068;2023-05-27T05:05:31;53.25;;;12.70;;
69841;SDS011;57138;51.326;-0.068;2023-05-27T05:07:56;49.55;;;12.30;;
69841;SDS011;57138;51.326;-0.068;2023-05-27T05:10:22;48.65;;;11.25;;
69841;SDS011;57138;51.326;-0.068;2023-05-27T05:12:48;45.88;;;10.43;;
69841;SDS011;57138;51.326;-0.068;2023-05-27T05:15:13;45.50;;;11.63;;
69841;SDS011;57138;51.326;-0.068;2023-05-27T05:17:39;56.60;;;11.30;;
69841;SDS011;57138;51.326;-0.068;2023-05-27T05:20:04;52.33;;;11.57;;
69841;SDS011;57138;51.326;-0.068;2023-05-27T05:22:30;52.58;;;11.77;;
69841;SDS011;57138;51.326;-0.068;2023-05-27T05:24:59;43.90;;;11.25;;
69841;SDS011;57138;51.326;-0.068;2023-05-27T05:27:26;43.40;;;12.90;;
69841;SDS011;57138;51.326;-0.068;2023-05-27T05:29:52;51.38;;;11.55;;
69841;SDS011;57138;51.326;-0.068;2023-05-27T05:32:18;50.38;;;12.07;;
69841;SDS011;57138;51.326;-0.068;2023-05-27T05:34:44;44.35;;;12.38;;
69841;SDS011;57138;51.326;-0.068;2023-05-27T05:37:09;34.30;;;9.68;;
69841;SDS011;57138;51.326;-0.068;2023-05-27T05:39:36;36.42;;;9.82;;
69841;SDS011;57138;51.326;-0.068;2023-05-27T05:42:02;38.25;;;9.15;;
69841;SDS011;57138;51.326;-0.068;2023-05-27T05:44:28;44.78;;;10.43;;
69841;SDS011;57138;51.326;-0.068;2023-05-27T05:46:53;28.52;;;8.57;;
69841;SDS011;57138;51.326;-0.068;2023-05-27T05:49:20;40.30;;;8.93;;
69841;SDS011;57138;51.326;-0.068;2023-05-27T05:51:46;44.42;;;10.30;;
69841;SDS011;57138;51.326;-0.068;2023-05-27T05:54:11;35.58;;;8.27;;
69841;SDS011;57138;51.326;-0.068;2023-05-27T05:56:37;41.53;;;8.85;;
69841;SDS011;57138;51.326;-0.068;2023-05-27T05:59:02;29.50;;;7.30;;
69841;SDS011;57138;51.326;-0.068;2023-05-27T06:01:28;37.10;;;8.45;;
69841;SDS011;57138;51.326;-0.068;2023-05-27T06:03:53;44.10;;;9.40;;
69841;SDS011;57138;51.326;-0.068;2023-05-27T06:06:24;33.60;;;8.13;;
69841;SDS011;57138;51.326;-0.068;2023-05-27T06:08:50;44.65;;;8.40;;
69841;SDS011;57138;51.326;-0.068;2023-05-27T06:11:16;33.47;;;7.60;;
69841;SDS011;57138;51.326;-0.068;2023-05-27T06:13:41;34.10;;;7.25;;
69841;SDS011;57138;51.326;-0.068;2023-05-27T06:16:07;35.25;;;7.32;;
69841;SDS011;57138;51.326;-0.068;2023-05-27T06:18:32;26.08;;;6.80;;
69841;SDS011;57138;51.326;-0.068;2023-05-27T06:20:57;32.50;;;7.60;;
69841;SDS011;57138;51.326;-0.068;2023-05-27T06:23:23;36.60;;;7.95;;
69841;SDS011;57138;51.326;-0.068;2023-05-27T06:25:49;30.48;;;7.38;;
69841;SDS011;57138;51.326;-0.068;2023-05-27T06:28:14;29.70;;;7.28;;
69841;SDS011;57138;51.326;-0.068;2023-05-27T06:30:42;28.58;;;6.55;;
69841;SDS011;57138;51.326;-0.068;2023-05-27T06:33:08;26.98;;;7.00;;
69841;SDS011;57138;51.326;-0.068;2023-05-27T06:35:33;33.25;;;7.38;;
69841;SDS011;57138;51.326;-0.068;2023-05-27T06:37:59;35.13;;;7.78;;
69841;SDS011;57138;51.326;-0.068;2023-05-27T06:40:25;35.78;;;6.80;;
69841;SDS011;57138;51.326;-0.068;2023-05-27T06:42:50;23.75;;;6.35;;
69841;SDS011;57138;51.326;-0.068;2023-05-27T06:45:16;30.25;;;6.70;;
69841;SDS011;57138;51.326;-0.068;2023-05-27T06:47:41;29.25;;;6.90;;
69841;SDS011;57138;51.326;-0.068;2023-05-27T06:50:07;32.67;;;7.32;;
69841;SDS011;57138;51.326;-0.068;2023-05-27T06:52:33;33.08;;;7.07;;
69841;SDS011;57138;51.326;-0.068;2023-05-27T06:54:58;26.90;;;7.22;;
69841;SDS011;57138;51.326;-0.068;2023-05-27T06:57:24;33.97;;;6.65;;
69841;SDS011;57138;51.326;-0.068;2023-05-27T06:59:49;33.72;;;7.78;;
69841;SDS011;57138;51.326;-0.068;2023-05-27T07:02:15;27.70;;;5.60;;
69841;SDS011;57138;51.326;-0.068;2023-05-27T07:04:41;19.85;;;5.05;;
69841;SDS011;57138;51.326;-0.068;2023-05-27T07:07:06;25.95;;;6.00;;
69841;SDS011;57138;51.326;-0.068;2023-05-27T07:09:32;27.45;;;5.75;;
69841;SDS011;57138;51.326;-0.068;2023-05-27T07:11:57;18.67;;;4.90;;
69841;SDS011;57138;51.326;-0.068;2023-05-27T07:14:22;24.63;;;6.32;;
69841;SDS011;57138;51.326;-0.068;2023-05-27T07:16:48;20.90;;;5.18;;
69841;SDS011;57138;51.326;-0.068;2023-05-27T07:19:13;28.15;;;6.63;;
69841;SDS011;57138;51.326;-0.068;2023-05-27T07:21:39;23.05;;;6.40;;
69841;SDS011;57138;51.326;-0.068;2023-05-27T07:24:04;23.33;;;5.55;;
69841;SDS011;57138;51.326;-0.068;2023-05-27T07:26:30;27.73;;;6.55;;
69841;SDS011;57138;51.326;-0.068;2023-05-27T07:28:57;27.05;;;6.70;;
69841;SDS011;57138;51.326;-0.068;2023-05-27T07:31:24;25.15;;;6.65;;
69841;SDS011;57138;51.326;-0.068;2023-05-27T07:33:49;37.05;;;6.32;;
69841;SDS011;57138;51.326;-0.068;2023-05-27T07:36:15;31.65;;;6.10;;
69841;SDS011;57138;51.326;-0.068;2023-05-27T07:38:41;13.82;;;4.55;;
69841;SDS011;57138;51.326;-0.068;2023-05-27T07:41:10;22.42;;;5.28;;
69841;SDS011;57138;51.326;-0.068;2023-05-27T07:43:40;25.27;;;6.38;;
69841;SDS011;57138;51.326;-0.068;2023-05-27T07:46:05;27.83;;;5.63;;
69841;SDS011;57138;51.326;-0.068;2023-05-27T07:48:31;25.95;;;6.30;;
69841;SDS011;57138;51.326;-0.068;2023-05-27T07:50:57;24.52;;;5.28;;
69841;SDS011;57138;51.326;-0.068;2023-05-27T07:53:23;25.88;;;6.25;;
69841;SDS011;57138;51.326;-0.068;2023-05-27T07:55:49;20.50;;;5.20;;
69841;SDS011;57138;51.326;-0.068;2023-05-27T07:58:15;25.27;;;6.40;;
69841;SDS011;57138;51.326;-0.068;2023-05-27T08:00:40;19.85;;;5.03;;
69841;SDS011;57138;51.326;-0.068;2023-05-27T08:03:06;18.50;;;5.07;;
69841;SDS011;57138;51.326;-0.068;2023-05-27T08:05:32;23.65;;;6.28;;
69841;SDS011;57138;51.326;-0.068;2023-05-27T08:07:58;17.60;;;5.10;;
69841;SDS011;57138;51.326;-0.068;2023-05-27T08:10:23;31.38;;;6.93;;
69841;SDS011;57138;51.326;-0.068;2023-05-27T08:12:49;28.05;;;7.57;;
69841;SDS011;57138;51.326;-0.068;2023-05-27T08:15:15;24.77;;;6.00;;
69841;SDS011;57138;51.326;-0.068;2023-05-27T08:17:41;23.73;;;7.57;;
69841;SDS011;57138;51.326;-0.068;2023-05-27T08:20:09;25.33;;;5.28;;
69841;SDS011;57138;51.326;-0.068;2023-05-27T08:22:37;22.65;;;6.07;;
69841;SDS011;57138;51.326;-0.068;2023-05-27T08:25:03;15.85;;;5.05;;
69841;SDS011;57138;51.326;-0.068;2023-05-27T08:30:28;22.23;;;4.97;;
69841;SDS011;57138;51.326;-0.068;2023-05-27T08:32:55;29.17;;;6.35;;
69841;SDS011;57138;51.326;-0.068;2023-05-27T08:35:21;17.80;;;4.90;;
69841;SDS011;57138;51.326;-0.068;2023-05-27T08:37:47;19.38;;;5.22;;
69841;SDS011;57138;51.326;-0.068;2023-05-27T08:40:13;22.60;;;5.60;;
69841;SDS011;57138;51.326;-0.068;2023-05-27T08:42:41;26.17;;;5.60;;
69841;SDS011;57138;51.326;-0.068;2023-05-27T08:45:08;20.92;;;6.00;;
69841;SDS011;57138;51.326;-0.068;2023-05-27T08:47:34;20.52;;;5.00;;
69841;SDS011;57138;51.326;-0.068;2023-05-27T08:50:01;26.42;;;7.93;;
69841;SDS011;57138;51.326;-0.068;2023-05-27T08:52:30;28.30;;;6.32;;
69841;SDS011;57138;51.326;-0.068;2023-05-27T08:54:56;20.20;;;5.35;;
69841;SDS011;57138;51.326;-0.068;2023-05-27T08:57:28;18.77;;;5.78;;
69841;SDS011;57138;51.326;-0.068;2023-05-27T08:59:55;18.77;;;5.25;;
69841;SDS011;57138;51.326;-0.068;2023-05-27T09:02:21;28.90;;;8.27;;
69841;SDS011;57138;51.326;-0.068;2023-05-27T09:04:51;25.02;;;8.07;;
69841;SDS011;57138;51.326;-0.068;2023-05-27T09:07:19;23.60;;;6.20;;
69841;SDS011;57138;51.326;-0.068;2023-05-27T09:09:54;25.75;;;5.90;;
69841;SDS011;57138;51.326;-0.068;2023-05-27T09:12:22;20.30;;;5.38;;
69841;SDS011;57138;51.326;-0.068;2023-05-27T09:14:50;26.63;;;7.22;;
69841;SDS011;57138;51.326;-0.068;2023-05-27T09:17:16;22.75;;;6.72;;
69841;SDS011;57138;51.326;-0.068;2023-05-27T09:19:41;22.33;;;6.00;;
69841;SDS011;57138;51.326;-0.068;2023-05-27T09:22:09;20.90;;;6.35;;
69841;SDS011;57138;51.326;-0.068;2023-05-27T09:24:43;21.52;;;5.85;;
69841;SDS011;57138;51.326;-0.068;2023-05-27T09:27:09;25.23;;;7.68;;
69841;SDS011;57138;51.326;-0.068;2023-05-27T09:29:37;19.27;;;6.07;;
69841;SDS011;57138;51.326;-0.068;2023-05-27T09:32:05;26.27;;;7.40;;
69841;SDS011;57138;51.326;-0.068;2023-05-27T09:34:42;24.10;;;8.57;;
69841;SDS011;57138;51.326;-0.068;2023-05-27T09:37:14;23.77;;;7.53;;
69841;SDS011;57138;51.326;-0.068;2023-05-27T09:39:42;28.50;;;7.80;;
69841;SDS011;57138;51.326;-0.068;2023-05-27T09:42:07;25.27;;;9.85;;
69841;SDS011;57138;51.326;-0.068;2023-05-27T09:44:36;29.45;;;8.50;;
69841;SDS011;57138;51.326;-0.068;2023-05-27T09:47:07;22.48;;;8.77;;
69841;SDS011;57138;51.326;-0.068;2023-05-27T09:49:37;24.52;;;9.35;;
69841;SDS011;57138;51.326;-0.068;2023-05-27T09:52:05;24.30;;;7.55;;
69841;SDS011;57138;51.326;-0.068;2023-05-27T09:54:32;21.65;;;8.32;;
69841;SDS011;57138;51.326;-0.068;2023-05-27T09:57:00;20.48;;;7.88;;
69841;SDS011;57138;51.326;-0.068;2023-05-27T09:59:28;27.00;;;9.52;;
69841;SDS011;57138;51.326;-0.068;2023-05-27T10:01:54;23.35;;;9.82;;
69841;SDS011;57138;51.326;-0.068;2023-05-27T10:04:21;26.40;;;9.30;;
69841;SDS011;57138;51.326;-0.068;2023-05-27T10:06:47;24.83;;;9.18;;
69841;SDS011;57138;51.326;-0.068;2023-05-27T10:09:13;23.40;;;9.25;;
69841;SDS011;57138;51.326;-0.068;2023-05-27T10:11:41;22.45;;;8.75;;
69841;SDS011;57138;51.326;-0.068;2023-05-27T10:14:09;15.57;;;7.85;;
69841;SDS011;57138;51.326;-0.068;2023-05-27T10:16:36;29.20;;;8.25;;
69841;SDS011;57138;51.326;-0.068;2023-05-27T10:19:02;22.98;;;8.30;;
69841;SDS011;57138;51.326;-0.068;2023-05-27T10:21:41;24.65;;;9.00;;
69841;SDS011;57138;51.326;-0.068;2023-05-27T10:24:09;35.80;;;11.40;;
69841;SDS011;57138;51.326;-0.068;2023-05-27T10:26:42;23.27;;;7.20;;
69841;SDS011;57138;51.326;-0.068;2023-05-27T10:29:11;26.80;;;8.77;;
69841;SDS011;57138;51.326;-0.068;2023-05-27T10:31:47;26.60;;;9.13;;
69841;SDS011;57138;51.326;-0.068;2023-05-27T10:34:14;21.60;;;7.35;;
69841;SDS011;57138;51.326;-0.068;2023-05-27T10:36:40;24.77;;;8.10;;
69841;SDS011;57138;51.326;-0.068;2023-05-27T10:44:14;21.73;;;7.47;;
69841;SDS011;57138;51.326;-0.068;2023-05-27T10:47:01;21.75;;;7.43;;
69841;SDS011;57138;51.326;-0.068;2023-05-27T10:49:35;23.25;;;7.15;;
69841;SDS011;57138;51.326;-0.068;2023-05-27T10:52:07;23.02;;;9.02;;
69841;SDS011;57138;51.326;-0.068;2023-05-27T10:54:38;23.45;;;9.57;;
69841;SDS011;57138;51.326;-0.068;2023-05-27T10:57:04;25.13;;;8.60;;
69841;SDS011;57138;51.326;-0.068;2023-05-27T10:59:53;23.20;;;9.07;;
69841;SDS011;57138;51.326;-0.068;2023-05-27T11:02:20;22.25;;;8.25;;
69841;SDS011;57138;51.326;-0.068;2023-05-27T11:04:50;27.92;;;9.88;;
69841;SDS011;57138;51.326;-0.068;2023-05-27T11:07:19;19.40;;;7.78;;
69841;SDS011;57138;51.326;-0.068;2023-05-27T11:09:47;20.52;;;7.72;;
69841;SDS011;57138;51.326;-0.068;2023-05-27T11:12:13;20.15;;;7.97;;
69841;SDS011;57138;51.326;-0.068;2023-05-27T11:14:46;22.35;;;7.22;;
69841;SDS011;57138;51.326;-0.068;2023-05-27T11:17:13;17.25;;;6.78;;
69841;SDS011;57138;51.326;-0.068;2023-05-27T11:19:39;24.02;;;5.72;;
69841;SDS011;57138;51.326;-0.068;2023-05-27T11:22:06;19.52;;;6.55;;
69841;SDS011;57138;51.326;-0.068;2023-05-27T11:24:33;23.60;;;5.95;;
69841;SDS011;57138;51.326;-0.068;2023-05-27T11:26:58;26.48;;;7.05;;
69841;SDS011;57138;51.326;-0.068;2023-05-27T11:29:25;20.92;;;5.75;;
69841;SDS011;57138;51.326;-0.068;2023-05-27T11:31:52;28.92;;;7.30;;
69841;SDS011;57138;51.326;-0.068;2023-05-27T11:34:21;26.20;;;6.00;;
69841;SDS011;57138;51.326;-0.068;2023-05-27T11:36:48;19.42;;;6.00;;
69841;SDS011;57138;51.326;-0.068;2023-05-27T11:39:15;24.23;;;7.05;;
69841;SDS011;57138;51.326;-0.068;2023-05-27T11:41:50;20.25;;;6.70;;
69841;SDS011;57138;51.326;-0.068;2023-05-27T11:44:22;21.80;;;5.60;;
69841;SDS011;57138;51.326;-0.068;2023-05-27T11:46:49;20.35;;;6.10;;
69841;SDS011;57138;51.326;-0.068;2023-05-27T11:49:24;25.23;;;5.72;;
69841;SDS011;57138;51.326;-0.068;2023-05-27T11:51:54;32.72;;;6.20;;
69841;SDS011;57138;51.326;-0.068;2023-05-27T11:54:24;16.55;;;5.07;;
69841;SDS011;57138;51.326;-0.068;2023-05-27T11:56:52;23.13;;;5.97;;
69841;SDS011;57138;51.326;-0.068;2023-05-27T11:59:19;19.92;;;6.93;;
69841;SDS011;57138;51.326;-0.068;2023-05-27T12:01:48;20.40;;;5.65;;
69841;SDS011;57138;51.326;-0.068;2023-05-27T12:04:14;14.02;;;5.45;;
69841;SDS011;57138;51.326;-0.068;2023-05-27T12:06:44;21.70;;;5.90;;
69841;SDS011;57138;51.326;-0.068;2023-05-27T12:09:13;25.05;;;6.07;;
69841;SDS011;57138;51.326;-0.068;2023-05-27T12:11:40;16.45;;;6.18;;
69841;SDS011;57138;51.326;-0.068;2023-05-27T12:14:05;19.70;;;5.30;;
69841;SDS011;57138;51.326;-0.068;2023-05-27T12:16:34;23.38;;;5.45;;
69841;SDS011;57138;51.326;-0.068;2023-05-27T12:19:00;20.08;;;5.32;;
69841;SDS011;57138;51.326;-0.068;2023-05-27T12:21:25;16.20;;;4.57;;
69841;SDS011;57138;51.326;-0.068;2023-05-27T12:23:51;16.42;;;4.90;;
69841;SDS011;57138;51.326;-0.068;2023-05-27T12:26:20;20.60;;;5.57;;
69841;SDS011;57138;51.326;-0.068;2023-05-27T12:28:47;16.70;;;4.40;;
69841;SDS011;57138;51.326;-0.068;2023-05-27T12:31:16;24.70;;;5.28;;
69841;SDS011;57138;51.326;-0.068;2023-05-27T12:33:41;14.90;;;4.45;;
69841;SDS011;57138;51.326;-0.068;2023-05-27T12:36:07;19.38;;;6.13;;
69841;SDS011;57138;51.326;-0.068;2023-05-27T12:38:36;22.20;;;5.75;;
69841;SDS011;57138;51.326;-0.068;2023-05-27T12:41:01;14.88;;;4.68;;
69841;SDS011;57138;51.326;-0.068;2023-05-27T12:43:27;15.07;;;4.70;;
69841;SDS011;57138;51.326;-0.068;2023-05-27T12:45:52;21.60;;;5.43;;
69841;SDS011;57138;51.326;-0.068;2023-05-27T12:48:18;12.00;;;4.65;;
69841;SDS011;57138;51.326;-0.068;2023-05-27T12:50:46;26.50;;;4.82;;
69841;SDS011;57138;51.326;-0.068;2023-05-27T12:53:12;14.38;;;4.40;;
69841;SDS011;57138;51.326;-0.068;2023-05-27T12:55:38;22.42;;;4.63;;
69841;SDS011;57138;51.326;-0.068;2023-05-27T12:58:03;21.58;;;5.38;;
69841;SDS011;57138;51.326;-0.068;2023-05-27T13:00:29;13.50;;;4.03;;
69841;SDS011;57138;51.326;-0.068;2023-05-27T13:02:56;16.00;;;4.05;;
69841;SDS011;57138;51.326;-0.068;2023-05-27T13:05:22;15.63;;;4.68;;
69841;SDS011;57138;51.326;-0.068;2023-05-27T13:10:24;17.08;;;6.13;;
69841;SDS011;57138;51.326;-0.068;2023-05-27T13:12:51;17.52;;;3.97;;
69841;SDS011;57138;51.326;-0.068;2023-05-27T13:15:17;16.45;;;4.70;;
69841;SDS011;57138;51.326;-0.068;2023-05-27T13:17:44;16.65;;;4.28;;
69841;SDS011;57138;51.326;-0.068;2023-05-27T13:20:11;13.38;;;4.20;;
69841;SDS011;57138;51.326;-0.068;2023-05-27T13:22:38;15.77;;;4.65;;
69841;SDS011;57138;51.326;-0.068;2023-05-27T13:25:04;17.45;;;5.25;;
69841;SDS011;57138;51.326;-0.068;2023-05-27T13:27:29;20.60;;;4.40;;
69841;SDS011;57138;51.326;-0.068;2023-05-27T13:29:55;14.48;;;3.83;;
69841;SDS011;57138;51.326;-0.068;2023-05-27T13:32:21;19.45;;;4.72;;
69841;SDS011;57138;51.326;-0.068;2023-05-27T13:34:49;17.45;;;4.28;;
69841;SDS011;57138;51.326;-0.068;2023-05-27T13:37:17;15.02;;;4.43;;
69841;SDS011;57138;51.326;-0.068;2023-05-27T13:39:45;18.42;;;4.18;;
69841;SDS011;57138;51.326;-0.068;2023-05-27T13:42:10;19.48;;;4.82;;
69841;SDS011;57138;51.326;-0.068;2023-05-27T13:44:36;13.27;;;3.92;;
69841;SDS011;57138;51.326;-0.068;2023-05-27T13:47:01;11.20;;;3.97;;
69841;SDS011;57138;51.326;-0.068;2023-05-27T13:49:27;14.85;;;3.95;;
69841;SDS011;57138;51.326;-0.068;2023-05-27T13:51:52;18.08;;;4.20;;
69841;SDS011;57138;51.326;-0.068;2023-05-27T13:54:17;18.25;;;4.88;;
69841;SDS011;57138;51.326;-0.068;2023-05-27T13:56:43;20.55;;;5.82;;
69841;SDS011;57138;51.326;-0.068;2023-05-27T13:59:12;17.70;;;5.35;;
69841;SDS011;57138;51.326;-0.068;2023-05-27T14:01:38;17.45;;;5.10;;
69841;SDS011;57138;51.326;-0.068;2023-05-27T14:04:07;22.13;;;5.93;;
69841;SDS011;57138;51.326;-0.068;2023-05-27T14:06:32;19.08;;;5.72;;
69841;SDS011;57138;51.326;-0.068;2023-05-27T14:08:58;24.88;;;6.05;;
69841;SDS011;57138;51.326;-0.068;2023-05-27T14:11:23;17.83;;;6.63;;
69841;SDS011;57138;51.326;-0.068;2023-05-27T14:13:49;19.55;;;5.13;;
69841;SDS011;57138;51.326;-0.068;2023-05-27T14:16:17;12.60;;;4.45;;
69841;SDS011;57138;51.326;-0.068;2023-05-27T14:18:43;20.50;;;5.30;;
69841;SDS011;57138;51.326;-0.068;2023-05-27T14:21:09;20.35;;;4.85;;
69841;SDS011;57138;51.326;-0.068;2023-05-27T14:23:34;16.02;;;4.07;;
69841;SDS011;57138;51.326;-0.068;2023-05-27T14:26:00;18.98;;;4.80;;
69841;SDS011;57138;51.326;-0.068;2023-05-27T14:28:28;17.95;;;4.20;;
69841;SDS011;57138;51.326;-0.068;2023-05-27T14:30:54;14.98;;;4.70;;